sensor_id;sensor_type;location;lat;lon;timestamp;temperature;humidity
9375;DHT22;4727;51.202;6.344;2023-06-10T00:01:29;21.40;99.90
9375;DHT22;4727;51.202;6.344;2023-06-10T00:03:55;21.30;99.90
9375;DHT22;4727;51.202;6.344;2023-06-10T00:06:21;21.20;99.90
9375;DHT22;4727;51.202;6.344;2023-06-10T00:08:50;21.10;99.90
9375;DHT22;4727;51.202;6.344;2023-06-10T00:11:15;21.10;99.90
9375;DHT22;4727;51.202;6.344;2023-06-10T00:13:41;21.00;99.90
9375;DHT22;4727;51.202;6.344;2023-06-10T00:16:07;20.80;99.90
9375;DHT22;4727;51.202;6.344;2023-06-10T00:18:32;20.90;99.90
9375;DHT22;4727;51.202;6.344;2023-06-10T00:20:58;20.80;99.90
9375;DHT22;4727;51.202;6.344;2023-06-10T00:23:29;20.80;99.90
9375;DHT22;4727;51.202;6.344;2023-06-10T00:26:02;20.80;99.90
9375;DHT22;4727;51.202;6.344;2023-06-10T00:28:28;20.80;99.90
9375;DHT22;4727;51.202;6.344;2023-06-10T00:30:54;20.70;99.90
9375;DHT22;4727;51.202;6.344;2023-06-10T00:33:19;20.80;99.90
9375;DHT22;4727;51.202;6.344;2023-06-10T00:35:46;20.80;99.90
9375;DHT22;4727;51.202;6.344;2023-06-10T00:38:13;20.80;99.90
9375;DHT22;4727;51.202;6.344;2023-06-10T00:40:40;20.80;99.90
9375;DHT22;4727;51.202;6.344;2023-06-10T00:43:09;20.80;99.90
9375;DHT22;4727;51.202;6.344;2023-06-10T00:45:34;20.80;99.90
9375;DHT22;4727;51.202;6.344;2023-06-10T00:48:01;20.70;99.90
9375;DHT22;4727;51.202;6.344;2023-06-10T00:50:27;20.70;99.90
9375;DHT22;4727;51.202;6.344;2023-06-10T00:52:54;20.70;99.90
9375;DHT22;4727;51.202;6.344;2023-06-10T00:55:20;20.50;99.90
9375;DHT22;4727;51.202;6.344;2023-06-10T00:57:46;20.50;99.90
9375;DHT22;4727;51.202;6.344;2023-06-10T01:00:14;20.50;99.90
9375;DHT22;4727;51.202;6.344;2023-06-10T01:02:41;20.40;99.90
9375;DHT22;4727;51.202;6.344;2023-06-10T01:05:09;20.40;99.90
9375;DHT22;4727;51.202;6.344;2023-06-10T01:10:57;20.30;99.90
9375;DHT22;4727;51.202;6.344;2023-06-10T01:13:25;20.20;99.90
9375;DHT22;4727;51.202;6.344;2023-06-10T01:15:57;20.10;99.90
9375;DHT22;4727;51.202;6.344;2023-06-10T01:18:29;20.00;99.90
9375;DHT22;4727;51.202;6.344;2023-06-10T01:20:55;20.00;99.90
9375;DHT22;4727;51.202;6.344;2023-06-10T01:23:21;19.90;99.90
9375;DHT22;4727;51.202;6.344;2023-06-10T01:26:01;19.80;99.90
9375;DHT22;4727;51.202;6.344;2023-06-10T01:28:38;19.90;99.90
9375;DHT22;4727;51.202;6.344;2023-06-10T01:31:19;19.80;99.90
9375;DHT22;4727;51.202;6.344;2023-06-10T01:33:51;19.70;99.90
9375;DHT22;4727;51.202;6.344;2023-06-10T01:36:18;19.70;99.90
9375;DHT22;4727;51.202;6.344;2023-06-10T01:38:46;19.70;99.90
9375;DHT22;4727;51.202;6.344;2023-06-10T01:41:14;19.70;99.90
9375;DHT22;4727;51.202;6.344;2023-06-10T01:43:43;19.70;99.90
9375;DHT22;4727;51.202;6.344;2023-06-10T01:46:09;19.80;99.90
9375;DHT22;4727;51.202;6.344;2023-06-10T01:48:35;19.80;99.90
9375;DHT22;4727;51.202;6.344;2023-06-10T01:51:01;19.70;99.90
9375;DHT22;4727;51.202;6.344;2023-06-10T01:53:26;19.70;99.90
9375;DHT22;4727;51.202;6.344;2023-06-10T01:55:52;19.60;99.90
9375;DHT22;4727;51.202;6.344;2023-06-10T01:58:17;19.50;99.90
9375;DHT22;4727;51.202;6.344;2023-06-10T02:00:43;19.60;99.90
9375;DHT22;4727;51.202;6.344;2023-06-10T02:03:08;19.50;99.90
9375;DHT22;4727;51.202;6.344;2023-06-10T02:05:34;19.50;99.90
9375;DHT22;4727;51.202;6.344;2023-06-10T02:08:00;19.50;99.90
9375;DHT22;4727;51.202;6.344;2023-06-10T02:10:26;19.40;99.90
9375;DHT22;4727;51.202;6.344;2023-06-10T02:12:51;19.30;99.90
9375;DHT22;4727;51.202;6.344;2023-06-10T02:15:17;19.40;99.90
9375;DHT22;4727;51.202;6.344;2023-06-10T02:17:42;19.40;99.90
9375;DHT22;4727;51.202;6.344;2023-06-10T02:20:10;19.30;99.90
9375;DHT22;4727;51.202;6.344;2023-06-10T02:22:36;19.30;99.90
9375;DHT22;4727;51.202;6.344;2023-06-10T02:25:02;19.20;99.90
9375;DHT22;4727;51.202;6.344;2023-06-10T02:27:29;19.20;99.90
9375;DHT22;4727;51.202;6.344;2023-06-10T02:29:56;19.20;99.90
9375;DHT22;4727;51.202;6.344;2023-06-10T02:32:22;19.10;99.90
9375;DHT22;4727;51.202;6.344;2023-06-10T02:34:47;19.00;99.90
9375;DHT22;4727;51.202;6.344;2023-06-10T02:37:14;19.00;99.90
9375;DHT22;4727;51.202;6.344;2023-06-10T02:39:40;19.00;99.90
9375;DHT22;4727;51.202;6.344;2023-06-10T02:42:07;19.00;99.90
9375;DHT22;4727;51.202;6.344;2023-06-10T02:44:32;19.00;99.90
9375;DHT22;4727;51.202;6.344;2023-06-10T02:46:58;19.00;99.90
9375;DHT22;4727;51.202;6.344;2023-06-10T02:49:24;18.90;99.90
9375;DHT22;4727;51.202;6.344;2023-06-10T02:51:50;18.90;99.90
9375;DHT22;4727;51.202;6.344;2023-06-10T02:54:19;18.80;99.90
9375;DHT22;4727;51.202;6.344;2023-06-10T02:56:45;18.80;99.90
9375;DHT22;4727;51.202;6.344;2023-06-10T02:59:11;18.80;99.90
9375;DHT22;4727;51.202;6.344;2023-06-10T03:01:36;18.70;99.90
9375;DHT22;4727;51.202;6.344;2023-06-10T03:04:04;18.70;99.90
9375;DHT22;4727;51.202;6.344;2023-06-10T03:06:30;18.70;99.90
9375;DHT22;4727;51.202;6.344;2023-06-10T03:08:55;18.70;99.90
9375;DHT22;4727;51.202;6.344;2023-06-10T03:11:21;18.70;99.90
9375;DHT22;4727;51.202;6.344;2023-06-10T03:13:47;18.60;99.90
9375;DHT22;4727;51.202;6.344;2023-06-10T03:16:12;18.60;99.90
9375;DHT22;4727;51.202;6.344;2023-06-10T03:18:38;18.50;99.90
9375;DHT22;4727;51.202;6.344;2023-06-10T03:21:03;18.50;99.90
9375;DHT22;4727;51.202;6.344;2023-06-10T03:23:29;18.40;99.90
9375;DHT22;4727;51.202;6.344;2023-06-10T03:25:55;18.40;99.90
9375;DHT22;4727;51.202;6.344;2023-06-10T03:28:21;18.40;99.90
9375;DHT22;4727;51.202;6.344;2023-06-10T03:30:47;18.40;99.90
9375;DHT22;4727;51.202;6.344;2023-06-10T03:33:13;18.30;99.90
9375;DHT22;4727;51.202;6.344;2023-06-10T03:35:39;18.30;99.90
9375;DHT22;4727;51.202;6.344;2023-06-10T03:38:05;18.40;99.90
9375;DHT22;4727;51.202;6.344;2023-06-10T03:40:30;18.40;99.90
9375;DHT22;4727;51.202;6.344;2023-06-10T03:42:57;18.30;99.90
9375;DHT22;4727;51.202;6.344;2023-06-10T03:45:23;18.30;99.90
9375;DHT22;4727;51.202;6.344;2023-06-10T03:47:50;18.30;99.90
9375;DHT22;4727;51.202;6.344;2023-06-10T03:50:16;18.30;99.90
9375;DHT22;4727;51.202;6.344;2023-06-10T03:52:41;18.30;99.90
9375;DHT22;4727;51.202;6.344;2023-06-10T03:55:07;18.30;99.90
9375;DHT22;4727;51.202;6.344;2023-06-10T03:57:33;18.30;99.90
9375;DHT22;4727;51.202;6.344;2023-06-10T03:59:58;18.30;99.90
9375;DHT22;4727;51.202;6.344;2023-06-10T04:02:24;18.30;99.90
9375;DHT22;4727;51.202;6.344;2023-06-10T04:04:50;18.20;99.90
9375;DHT22;4727;51.202;6.344;2023-06-10T04:07:16;18.20;99.90
9375;DHT22;4727;51.202;6.344;2023-06-10T04:09:44;18.10;99.90
9375;DHT22;4727;51.202;6.344;2023-06-10T04:12:09;18.20;99.90
9375;DHT22;4727;51.202;6.344;2023-06-10T04:14:36;18.20;99.90
9375;DHT22;4727;51.202;6.344;2023-06-10T04:17:04;18.20;99.90
9375;DHT22;4727;51.202;6.344;2023-06-10T04:19:32;18.30;99.90
9375;DHT22;4727;51.202;6.344;2023-06-10T04:21:58;18.30;99.90
9375;DHT22;4727;51.202;6.344;2023-06-10T04:24:23;18.40;99.90
9375;DHT22;4727;51.202;6.344;2023-06-10T04:26:49;18.40;99.90
9375;DHT22;4727;51.202;6.344;2023-06-10T04:29:15;18.50;99.90
9375;DHT22;4727;51.202;6.344;2023-06-10T04:31:40;18.40;99.90
9375;DHT22;4727;51.202;6.344;2023-06-10T04:34:06;18.40;99.90
9375;DHT22;4727;51.202;6.344;2023-06-10T04:36:33;18.40;99.90
9375;DHT22;4727;51.202;6.344;2023-06-10T04:38:58;18.40;99.90
9375;DHT22;4727;51.202;6.344;2023-06-10T04:41:24;18.40;99.90
9375;DHT22;4727;51.202;6.344;2023-06-10T04:43:51;18.60;99.90
9375;DHT22;4727;51.202;6.344;2023-06-10T04:46:16;18.60;99.90
9375;DHT22;4727;51.202;6.344;2023-06-10T04:48:42;18.70;99.90
9375;DHT22;4727;51.202;6.344;2023-06-10T04:51:07;19.00;99.90
9375;DHT22;4727;51.202;6.344;2023-06-10T04:53:33;18.90;99.90
9375;DHT22;4727;51.202;6.344;2023-06-10T04:55:59;19.00;99.90
9375;DHT22;4727;51.202;6.344;2023-06-10T04:58:24;19.00;99.90
9375;DHT22;4727;51.202;6.344;2023-06-10T05:00:50;19.00;99.90
9375;DHT22;4727;51.202;6.344;2023-06-10T05:03:16;19.00;99.90
9375;DHT22;4727;51.202;6.344;2023-06-10T05:05:41;19.10;99.90
9375;DHT22;4727;51.202;6.344;2023-06-10T05:08:07;19.20;99.90
9375;DHT22;4727;51.202;6.344;2023-06-10T05:10:33;19.10;99.90
9375;DHT22;4727;51.202;6.344;2023-06-10T05:12:59;19.30;99.90
9375;DHT22;4727;51.202;6.344;2023-06-10T05:15:25;19.40;99.90
9375;DHT22;4727;51.202;6.344;2023-06-10T05:17:50;19.40;99.90
9375;DHT22;4727;51.202;6.344;2023-06-10T05:20:17;19.50;99.90
9375;DHT22;4727;51.202;6.344;2023-06-10T05:22:43;19.50;99.90
9375;DHT22;4727;51.202;6.344;2023-06-10T05:25:10;19.60;99.90
9375;DHT22;4727;51.202;6.344;2023-06-10T05:27:35;19.60;99.90
9375;DHT22;4727;51.202;6.344;2023-06-10T05:30:02;19.90;99.90
9375;DHT22;4727;51.202;6.344;2023-06-10T05:32:33;19.80;99.90
9375;DHT22;4727;51.202;6.344;2023-06-10T05:34:59;19.90;99.90
9375;DHT22;4727;51.202;6.344;2023-06-10T05:37:26;19.90;99.90
9375;DHT22;4727;51.202;6.344;2023-06-10T05:39:51;20.00;99.90
9375;DHT22;4727;51.202;6.344;2023-06-10T05:42:17;20.10;99.90
9375;DHT22;4727;51.202;6.344;2023-06-10T05:44:43;20.10;99.90
9375;DHT22;4727;51.202;6.344;2023-06-10T05:47:08;20.30;99.90
9375;DHT22;4727;51.202;6.344;2023-06-10T05:49:34;20.30;99.90
9375;DHT22;4727;51.202;6.344;2023-06-10T05:52:00;20.30;99.90
9375;DHT22;4727;51.202;6.344;2023-06-10T05:54:26;20.40;99.90
9375;DHT22;4727;51.202;6.344;2023-06-10T05:56:52;20.40;99.90
9375;DHT22;4727;51.202;6.344;2023-06-10T05:59:17;20.50;99.90
9375;DHT22;4727;51.202;6.344;2023-06-10T06:01:43;20.50;99.90
9375;DHT22;4727;51.202;6.344;2023-06-10T06:04:08;20.60;99.90
9375;DHT22;4727;51.202;6.344;2023-06-10T06:06:35;20.70;99.90
9375;DHT22;4727;51.202;6.344;2023-06-10T06:09:01;20.70;99.90
9375;DHT22;4727;51.202;6.344;2023-06-10T06:11:28;20.80;99.90
9375;DHT22;4727;51.202;6.344;2023-06-10T06:13:53;20.90;99.90
9375;DHT22;4727;51.202;6.344;2023-06-10T06:16:19;21.00;99.90
9375;DHT22;4727;51.202;6.344;2023-06-10T06:18:44;21.00;99.90
9375;DHT22;4727;51.202;6.344;2023-06-10T06:21:10;21.10;99.90
9375;DHT22;4727;51.202;6.344;2023-06-10T06:23:35;21.20;99.90
9375;DHT22;4727;51.202;6.344;2023-06-10T06:26:01;21.20;99.90
9375;DHT22;4727;51.202;6.344;2023-06-10T06:28:30;21.30;99.90
9375;DHT22;4727;51.202;6.344;2023-06-10T06:30:56;21.40;99.90
9375;DHT22;4727;51.202;6.344;2023-06-10T06:33:22;21.40;99.90
9375;DHT22;4727;51.202;6.344;2023-06-10T06:35:48;21.40;99.90
9375;DHT22;4727;51.202;6.344;2023-06-10T06:38:13;21.50;99.90
9375;DHT22;4727;51.202;6.344;2023-06-10T06:40:39;21.70;99.90
9375;DHT22;4727;51.202;6.344;2023-06-10T06:43:04;21.80;99.90
9375;DHT22;4727;51.202;6.344;2023-06-10T06:45:30;21.80;99.90
9375;DHT22;4727;51.202;6.344;2023-06-10T06:47:56;21.80;99.90
9375;DHT22;4727;51.202;6.344;2023-06-10T06:50:21;21.90;99.90
9375;DHT22;4727;51.202;6.344;2023-06-10T06:52:47;22.00;99.90
9375;DHT22;4727;51.202;6.344;2023-06-10T06:55:12;22.10;99.90
9375;DHT22;4727;51.202;6.344;2023-06-10T06:57:38;22.10;99.90
9375;DHT22;4727;51.202;6.344;2023-06-10T07:00:04;22.20;99.90
9375;DHT22;4727;51.202;6.344;2023-06-10T07:02:30;22.30;99.90
9375;DHT22;4727;51.202;6.344;2023-06-10T07:04:57;22.30;99.90
9375;DHT22;4727;51.202;6.344;2023-06-10T07:07:24;22.50;99.90
9375;DHT22;4727;51.202;6.344;2023-06-10T07:09:50;22.50;99.90
9375;DHT22;4727;51.202;6.344;2023-06-10T07:12:15;22.60;99.90
9375;DHT22;4727;51.202;6.344;2023-06-10T07:14:41;22.70;99.90
9375;DHT22;4727;51.202;6.344;2023-06-10T07:17:07;22.80;99.90
9375;DHT22;4727;51.202;6.344;2023-06-10T07:19:32;22.80;99.90
9375;DHT22;4727;51.202;6.344;2023-06-10T07:21:58;22.90;99.90
9375;DHT22;4727;51.202;6.344;2023-06-10T07:24:24;22.90;99.90
9375;DHT22;4727;51.202;6.344;2023-06-10T07:26:50;23.00;99.90
9375;DHT22;4727;51.202;6.344;2023-06-10T07:29:16;23.10;99.90
9375;DHT22;4727;51.202;6.344;2023-06-10T07:31:41;23.20;99.90
9375;DHT22;4727;51.202;6.344;2023-06-10T07:34:07;23.20;99.90
9375;DHT22;4727;51.202;6.344;2023-06-10T07:36:33;23.30;99.90
9375;DHT22;4727;51.202;6.344;2023-06-10T07:38:59;23.40;99.90
9375;DHT22;4727;51.202;6.344;2023-06-10T07:41:24;23.40;99.90
9375;DHT22;4727;51.202;6.344;2023-06-10T07:43:54;23.40;99.90
9375;DHT22;4727;51.202;6.344;2023-06-10T07:46:22;23.50;99.90
9375;DHT22;4727;51.202;6.344;2023-06-10T07:48:48;23.60;99.90
9375;DHT22;4727;51.202;6.344;2023-06-10T07:51:17;23.70;99.90
9375;DHT22;4727;51.202;6.344;2023-06-10T07:53:43;23.70;99.90
9375;DHT22;4727;51.202;6.344;2023-06-10T07:56:09;23.80;99.90
9375;DHT22;4727;51.202;6.344;2023-06-10T07:58:34;23.70;99.90
9375;DHT22;4727;51.202;6.344;2023-06-10T08:01:00;23.90;99.90
9375;DHT22;4727;51.202;6.344;2023-06-10T08:03:25;24.00;99.90
9375;DHT22;4727;51.202;6.344;2023-06-10T08:05:51;24.00;99.90
9375;DHT22;4727;51.202;6.344;2023-06-10T08:08:16;24.10;99.90
9375;DHT22;4727;51.202;6.344;2023-06-10T08:10:42;24.20;99.90
9375;DHT22;4727;51.202;6.344;2023-06-10T08:13:08;24.30;99.90
9375;DHT22;4727;51.202;6.344;2023-06-10T08:15:34;24.30;99.90
9375;DHT22;4727;51.202;6.344;2023-06-10T08:17:59;24.20;99.90
9375;DHT22;4727;51.202;6.344;2023-06-10T08:20:25;24.40;99.90
9375;DHT22;4727;51.202;6.344;2023-06-10T08:22:51;24.50;99.90
9375;DHT22;4727;51.202;6.344;2023-06-10T08:25:16;24.60;99.90
9375;DHT22;4727;51.202;6.344;2023-06-10T08:27:42;24.60;99.90
9375;DHT22;4727;51.202;6.344;2023-06-10T08:30:08;24.70;99.90
9375;DHT22;4727;51.202;6.344;2023-06-10T08:32:36;24.80;99.90
9375;DHT22;4727;51.202;6.344;2023-06-10T08:35:01;24.90;99.90
9375;DHT22;4727;51.202;6.344;2023-06-10T08:37:27;25.00;99.90
9375;DHT22;4727;51.202;6.344;2023-06-10T08:39:52;25.00;99.90
9375;DHT22;4727;51.202;6.344;2023-06-10T08:42:39;25.10;99.90
9375;DHT22;4727;51.202;6.344;2023-06-10T08:45:12;25.10;99.90
9375;DHT22;4727;51.202;6.344;2023-06-10T08:47:42;25.10;99.90
9375;DHT22;4727;51.202;6.344;2023-06-10T08:50:10;25.20;99.90
9375;DHT22;4727;51.202;6.344;2023-06-10T08:52:36;25.20;99.90
9375;DHT22;4727;51.202;6.344;2023-06-10T08:55:12;25.30;99.90
9375;DHT22;4727;51.202;6.344;2023-06-10T08:57:41;25.30;99.90
9375;DHT22;4727;51.202;6.344;2023-06-10T09:00:08;25.40;99.90
9375;DHT22;4727;51.202;6.344;2023-06-10T09:02:34;25.40;99.90
9375;DHT22;4727;51.202;6.344;2023-06-10T09:05:01;25.40;99.90
9375;DHT22;4727;51.202;6.344;2023-06-10T09:07:27;25.50;99.90
9375;DHT22;4727;51.202;6.344;2023-06-10T09:09:57;25.60;99.90
9375;DHT22;4727;51.202;6.344;2023-06-10T09:12:24;25.60;99.90
9375;DHT22;4727;51.202;6.344;2023-06-10T09:14:50;25.70;99.90
9375;DHT22;4727;51.202;6.344;2023-06-10T09:17:16;25.70;99.90
9375;DHT22;4727;51.202;6.344;2023-06-10T09:19:42;25.80;99.90
9375;DHT22;4727;51.202;6.344;2023-06-10T09:22:09;25.80;99.90
9375;DHT22;4727;51.202;6.344;2023-06-10T09:24:35;25.80;99.90
9375;DHT22;4727;51.202;6.344;2023-06-10T09:27:05;25.80;99.90
9375;DHT22;4727;51.202;6.344;2023-06-10T09:29:44;25.90;99.90
9375;DHT22;4727;51.202;6.344;2023-06-10T09:32:10;25.90;99.90
9375;DHT22;4727;51.202;6.344;2023-06-10T09:34:36;25.90;99.90
9375;DHT22;4727;51.202;6.344;2023-06-10T09:37:02;26.00;99.90
9375;DHT22;4727;51.202;6.344;2023-06-10T09:39:27;26.00;99.90
9375;DHT22;4727;51.202;6.344;2023-06-10T09:41:53;26.10;99.90
9375;DHT22;4727;51.202;6.344;2023-06-10T09:44:20;26.10;99.90
9375;DHT22;4727;51.202;6.344;2023-06-10T09:46:48;26.10;99.90
9375;DHT22;4727;51.202;6.344;2023-06-10T09:49:16;26.20;99.90
9375;DHT22;4727;51.202;6.344;2023-06-10T09:51:55;26.20;99.90
9375;DHT22;4727;51.202;6.344;2023-06-10T09:54:21;26.30;99.90
9375;DHT22;4727;51.202;6.344;2023-06-10T09:56:48;26.40;99.90
9375;DHT22;4727;51.202;6.344;2023-06-10T09:59:14;26.50;99.90
9375;DHT22;4727;51.202;6.344;2023-06-10T10:01:39;26.50;99.90
9375;DHT22;4727;51.202;6.344;2023-06-10T10:04:05;26.60;99.90
9375;DHT22;4727;51.202;6.344;2023-06-10T10:06:31;26.70;99.90
9375;DHT22;4727;51.202;6.344;2023-06-10T10:08:57;26.70;99.90
9375;DHT22;4727;51.202;6.344;2023-06-10T10:11:24;26.80;99.90
9375;DHT22;4727;51.202;6.344;2023-06-10T10:13:52;26.80;99.90
9375;DHT22;4727;51.202;6.344;2023-06-10T10:16:22;26.90;99.90
9375;DHT22;4727;51.202;6.344;2023-06-10T10:18:55;27.00;99.90
9375;DHT22;4727;51.202;6.344;2023-06-10T10:21:24;27.10;99.90
9375;DHT22;4727;51.202;6.344;2023-06-10T10:26:21;27.30;99.90
9375;DHT22;4727;51.202;6.344;2023-06-10T10:29:07;27.30;99.90
9375;DHT22;4727;51.202;6.344;2023-06-10T10:31:36;27.40;99.90
9375;DHT22;4727;51.202;6.344;2023-06-10T10:34:06;27.50;99.90
9375;DHT22;4727;51.202;6.344;2023-06-10T10:36:32;27.50;99.90
9375;DHT22;4727;51.202;6.344;2023-06-10T10:38:58;27.60;99.90
9375;DHT22;4727;51.202;6.344;2023-06-10T10:41:27;27.60;99.90
9375;DHT22;4727;51.202;6.344;2023-06-10T10:43:54;27.70;99.90
9375;DHT22;4727;51.202;6.344;2023-06-10T10:46:19;27.70;99.90
9375;DHT22;4727;51.202;6.344;2023-06-10T10:48:47;27.80;99.90
9375;DHT22;4727;51.202;6.344;2023-06-10T10:51:17;27.90;99.90
9375;DHT22;4727;51.202;6.344;2023-06-10T10:53:42;28.00;99.90
9375;DHT22;4727;51.202;6.344;2023-06-10T10:56:15;28.10;99.90
9375;DHT22;4727;51.202;6.344;2023-06-10T10:58:41;28.20;99.90
9375;DHT22;4727;51.202;6.344;2023-06-10T11:01:13;28.20;99.90
9375;DHT22;4727;51.202;6.344;2023-06-10T11:03:46;28.30;99.90
9375;DHT22;4727;51.202;6.344;2023-06-10T11:06:13;28.30;99.90
9375;DHT22;4727;51.202;6.344;2023-06-10T11:11:25;28.40;99.90
9375;DHT22;4727;51.202;6.344;2023-06-10T11:16:30;28.60;99.90
9375;DHT22;4727;51.202;6.344;2023-06-10T11:19:03;28.70;99.90
9375;DHT22;4727;51.202;6.344;2023-06-10T11:21:28;28.70;99.90
9375;DHT22;4727;51.202;6.344;2023-06-10T11:23:54;28.80;99.90
9375;DHT22;4727;51.202;6.344;2023-06-10T11:31:24;29.10;99.90
9375;DHT22;4727;51.202;6.344;2023-06-10T11:33:58;29.10;99.90
9375;DHT22;4727;51.202;6.344;2023-06-10T11:36:25;29.20;99.90
9375;DHT22;4727;51.202;6.344;2023-06-10T11:38:55;29.20;99.90
9375;DHT22;4727;51.202;6.344;2023-06-10T11:41:21;29.30;99.90
9375;DHT22;4727;51.202;6.344;2023-06-10T11:43:47;29.30;99.90
9375;DHT22;4727;51.202;6.344;2023-06-10T11:46:13;29.30;99.90
9375;DHT22;4727;51.202;6.344;2023-06-10T11:48:48;29.50;99.90
9375;DHT22;4727;51.202;6.344;2023-06-10T11:51:13;29.60;99.90
9375;DHT22;4727;51.202;6.344;2023-06-10T11:53:39;29.70;99.90
9375;DHT22;4727;51.202;6.344;2023-06-10T11:56:05;29.80;99.90
9375;DHT22;4727;51.202;6.344;2023-06-10T11:58:30;29.80;99.90
9375;DHT22;4727;51.202;6.344;2023-06-10T12:00:56;29.90;99.90
9375;DHT22;4727;51.202;6.344;2023-06-10T12:03:23;29.90;99.90
9375;DHT22;4727;51.202;6.344;2023-06-10T12:06:04;30.00;99.90
9375;DHT22;4727;51.202;6.344;2023-06-10T12:08:30;30.10;99.90
9375;DHT22;4727;51.202;6.344;2023-06-10T12:10:56;30.10;99.90
9375;DHT22;4727;51.202;6.344;2023-06-10T12:13:23;30.10;99.90
9375;DHT22;4727;51.202;6.344;2023-06-10T12:15:52;30.00;99.90
9375;DHT22;4727;51.202;6.344;2023-06-10T12:18:19;30.00;99.90
9375;DHT22;4727;51.202;6.344;2023-06-10T12:20:45;30.10;99.90
9375;DHT22;4727;51.202;6.344;2023-06-10T12:23:11;30.10;99.90
9375;DHT22;4727;51.202;6.344;2023-06-10T12:25:37;30.20;99.90
9375;DHT22;4727;51.202;6.344;2023-06-10T12:28:03;30.40;99.90
9375;DHT22;4727;51.202;6.344;2023-06-10T12:30:30;30.40;99.90
9375;DHT22;4727;51.202;6.344;2023-06-10T12:32:56;30.40;99.90
9375;DHT22;4727;51.202;6.344;2023-06-10T12:35:28;30.40;99.90
9375;DHT22;4727;51.202;6.344;2023-06-10T12:37:57;30.50;99.90
9375;DHT22;4727;51.202;6.344;2023-06-10T12:40:31;30.60;99.90
9375;DHT22;4727;51.202;6.344;2023-06-10T12:42:58;30.80;99.90
9375;DHT22;4727;51.202;6.344;2023-06-10T12:45:28;31.00;99.90
9375;DHT22;4727;51.202;6.344;2023-06-10T12:50:40;31.30;99.90
9375;DHT22;4727;51.202;6.344;2023-06-10T12:53:06;31.50;99.90
9375;DHT22;4727;51.202;6.344;2023-06-10T12:55:33;31.60;99.90
9375;DHT22;4727;51.202;6.344;2023-06-10T12:57:59;31.50;99.90
9375;DHT22;4727;51.202;6.344;2023-06-10T13:00:25;31.40;99.90
9375;DHT22;4727;51.202;6.344;2023-06-10T13:02:52;31.20;99.90
9375;DHT22;4727;51.202;6.344;2023-06-10T13:05:19;31.10;99.90
9375;DHT22;4727;51.202;6.344;2023-06-10T13:07:45;31.00;99.90
9375;DHT22;4727;51.202;6.344;2023-06-10T13:10:12;31.00;99.90
9375;DHT22;4727;51.202;6.344;2023-06-10T13:12:39;30.90;99.90
9375;DHT22;4727;51.202;6.344;2023-06-10T13:15:05;30.80;99.90
9375;DHT22;4727;51.202;6.344;2023-06-10T13:17:30;30.70;99.90
9375;DHT22;4727;51.202;6.344;2023-06-10T13:19:56;30.70;99.90
9375;DHT22;4727;51.202;6.344;2023-06-10T13:22:22;30.60;99.90
9375;DHT22;4727;51.202;6.344;2023-06-10T13:24:49;30.50;99.90
9375;DHT22;4727;51.202;6.344;2023-06-10T13:27:14;30.40;99.90
9375;DHT22;4727;51.202;6.344;2023-06-10T13:29:40;30.20;99.90
9375;DHT22;4727;51.202;6.344;2023-06-10T13:32:06;30.20;99.90
9375;DHT22;4727;51.202;6.344;2023-06-10T13:34:32;30.10;99.90
9375;DHT22;4727;51.202;6.344;2023-06-10T13:36:57;30.00;99.90
9375;DHT22;4727;51.202;6.344;2023-06-10T13:39:23;29.90;99.90
9375;DHT22;4727;51.202;6.344;2023-06-10T13:41:49;30.00;99.90
9375;DHT22;4727;51.202;6.344;2023-06-10T13:44:14;30.00;99.90
9375;DHT22;4727;51.202;6.344;2023-06-10T13:46:40;30.20;99.90
9375;DHT22;4727;51.202;6.344;2023-06-10T13:49:06;30.30;99.90
9375;DHT22;4727;51.202;6.344;2023-06-10T13:51:31;30.40;99.90
9375;DHT22;4727;51.202;6.344;2023-06-10T13:53:57;30.50;99.90
9375;DHT22;4727;51.202;6.344;2023-06-10T13:56:23;30.60;99.90
9375;DHT22;4727;51.202;6.344;2023-06-10T13:58:48;30.50;99.90
9375;DHT22;4727;51.202;6.344;2023-06-10T14:01:14;30.60;99.90
9375;DHT22;4727;51.202;6.344;2023-06-10T14:03:39;30.80;99.90
9375;DHT22;4727;51.202;6.344;2023-06-10T14:06:05;31.10;99.90
9375;DHT22;4727;51.202;6.344;2023-06-10T14:08:31;31.30;99.90
9375;DHT22;4727;51.202;6.344;2023-06-10T14:10:56;31.50;99.90
9375;DHT22;4727;51.202;6.344;2023-06-10T14:13:22;31.40;99.90
9375;DHT22;4727;51.202;6.344;2023-06-10T14:15:47;31.30;99.90
9375;DHT22;4727;51.202;6.344;2023-06-10T14:18:13;31.30;99.90
9375;DHT22;4727;51.202;6.344;2023-06-10T14:20:38;31.40;99.90
9375;DHT22;4727;51.202;6.344;2023-06-10T14:23:04;31.50;99.90
9375;DHT22;4727;51.202;6.344;2023-06-10T14:25:30;31.60;99.90
9375;DHT22;4727;51.202;6.344;2023-06-10T14:27:55;31.70;99.90
9375;DHT22;4727;51.202;6.344;2023-06-10T14:30:21;31.60;99.90
9375;DHT22;4727;51.202;6.344;2023-06-10T14:32:47;31.70;99.90
9375;DHT22;4727;51.202;6.344;2023-06-10T14:35:12;32.00;99.90
9375;DHT22;4727;51.202;6.344;2023-06-10T14:37:38;32.00;99.90
9375;DHT22;4727;51.202;6.344;2023-06-10T14:40:04;32.00;99.90
9375;DHT22;4727;51.202;6.344;2023-06-10T14:42:31;31.90;99.90
9375;DHT22;4727;51.202;6.344;2023-06-10T14:44:57;31.80;99.90
9375;DHT22;4727;51.202;6.344;2023-06-10T14:47:23;31.80;99.90
9375;DHT22;4727;51.202;6.344;2023-06-10T14:49:49;31.70;99.90
9375;DHT22;4727;51.202;6.344;2023-06-10T14:52:15;31.90;99.90
9375;DHT22;4727;51.202;6.344;2023-06-10T14:54:41;32.00;99.90
9375;DHT22;4727;51.202;6.344;2023-06-10T14:57:06;32.20;99.90
9375;DHT22;4727;51.202;6.344;2023-06-10T14:59:33;32.30;99.90
9375;DHT22;4727;51.202;6.344;2023-06-10T15:01:59;32.20;99.90
9375;DHT22;4727;51.202;6.344;2023-06-10T15:04:26;32.10;99.90
9375;DHT22;4727;51.202;6.344;2023-06-10T15:06:52;32.10;99.90
9375;DHT22;4727;51.202;6.344;2023-06-10T15:09:17;32.00;99.90
9375;DHT22;4727;51.202;6.344;2023-06-10T15:11:43;31.80;99.90
9375;DHT22;4727;51.202;6.344;2023-06-10T15:14:08;31.70;99.90
9375;DHT22;4727;51.202;6.344;2023-06-10T15:16:34;31.60;99.90
9375;DHT22;4727;51.202;6.344;2023-06-10T15:19:00;31.50;99.90
9375;DHT22;4727;51.202;6.344;2023-06-10T15:21:25;31.50;99.90
9375;DHT22;4727;51.202;6.344;2023-06-10T15:23:51;31.50;99.90
9375;DHT22;4727;51.202;6.344;2023-06-10T15:26:17;31.80;99.90
9375;DHT22;4727;51.202;6.344;2023-06-10T15:28:42;32.00;99.90
9375;DHT22;4727;51.202;6.344;2023-06-10T15:31:08;32.00;99.90
9375;DHT22;4727;51.202;6.344;2023-06-10T15:33:33;32.10;99.90
9375;DHT22;4727;51.202;6.344;2023-06-10T15:35:59;32.20;99.90
9375;DHT22;4727;51.202;6.344;2023-06-10T15:38:25;32.10;99.90
9375;DHT22;4727;51.202;6.344;2023-06-10T15:40:50;32.10;99.90
9375;DHT22;4727;51.202;6.344;2023-06-10T15:43:16;32.20;99.90
9375;DHT22;4727;51.202;6.344;2023-06-10T15:45:41;32.10;99.90
9375;DHT22;4727;51.202;6.344;2023-06-10T15:48:07;31.90;99.90
9375;DHT22;4727;51.202;6.344;2023-06-10T15:50:33;31.70;99.90
9375;DHT22;4727;51.202;6.344;2023-06-10T15:52:58;31.60;99.90
9375;DHT22;4727;51.202;6.344;2023-06-10T15:55:24;31.50;99.90
9375;DHT22;4727;51.202;6.344;2023-06-10T15:57:51;31.40;99.90
9375;DHT22;4727;51.202;6.344;2023-06-10T16:00:17;31.30;99.90
9375;DHT22;4727;51.202;6.344;2023-06-10T16:02:42;31.20;99.90
9375;DHT22;4727;51.202;6.344;2023-06-10T16:05:08;31.10;99.90
9375;DHT22;4727;51.202;6.344;2023-06-10T16:07:33;31.00;99.90
9375;DHT22;4727;51.202;6.344;2023-06-10T16:09:59;30.90;99.90
9375;DHT22;4727;51.202;6.344;2023-06-10T16:12:25;30.90;99.90
9375;DHT22;4727;51.202;6.344;2023-06-10T16:14:50;30.80;99.90
9375;DHT22;4727;51.202;6.344;2023-06-10T16:17:16;30.80;99.90